createdAt,value
2018-01-22T00:02:16.455Z,17.13
2018-01-22T00:04:44.780Z,21.70
2018-01-22T00:07:13.913Z,19.87
2018-01-22T00:09:42.391Z,21.77
2018-01-22T00:12:10.726Z,17.13
2018-01-22T00:14:39.220Z,19.10
2018-01-22T00:17:07.614Z,19.13
2018-01-22T00:19:36.136Z,19.27
2018-01-22T00:22:04.489Z,20.20
2018-01-22T00:24:33.250Z,18.40
2018-01-22T00:27:01.574Z,20.07
2018-01-22T00:29:29.862Z,23.13
2018-01-22T00:31:58.152Z,20.30
2018-01-22T00:34:26.524Z,18.90
2018-01-22T00:36:54.862Z,22.43
2018-01-22T00:39:23.156Z,22.43
2018-01-22T00:41:51.514Z,21.47
2018-01-22T00:44:20.640Z,20.97
2018-01-22T00:46:48.922Z,20.90
2018-01-22T00:49:17.246Z,22.10
2018-01-22T00:51:46.338Z,24.43
2018-01-22T00:54:14.626Z,23.03
2018-01-22T00:56:42.926Z,22.80
2018-01-22T00:59:11.892Z,19.97
2018-01-22T01:01:40.257Z,23.23
2018-01-22T01:04:08.580Z,22.80
2018-01-22T01:06:38.090Z,18.67
2018-01-22T01:09:07.196Z,19.23
2018-01-22T01:11:35.600Z,20.67
2018-01-22T01:14:03.908Z,20.07
2018-01-22T01:16:32.196Z,23.10
2018-01-22T01:19:00.494Z,21.10
2018-01-22T01:21:28.802Z,17.10
2018-01-22T01:23:57.868Z,19.33
2018-01-22T01:26:26.178Z,18.00
2018-01-22T01:28:54.484Z,20.00
2018-01-22T01:31:22.808Z,18.63
2018-01-22T01:33:51.130Z,20.53
2018-01-22T01:36:20.202Z,17.53
2018-01-22T01:38:48.527Z,15.93
2018-01-22T01:41:16.877Z,16.40
2018-01-22T01:43:45.204Z,17.97
2018-01-22T01:46:13.494Z,17.70
2018-01-22T01:49:08.590Z,14.93
2018-01-22T01:51:36.896Z,18.90
2018-01-22T01:54:05.271Z,16.63
2018-01-22T01:56:33.548Z,17.07
2018-01-22T01:59:01.862Z,20.03
2018-01-22T02:01:30.919Z,17.20
2018-01-22T02:03:59.954Z,18.30
2018-01-22T02:06:28.256Z,14.53
2018-01-22T02:08:56.558Z,15.90
2018-01-22T02:11:24.873Z,16.67
2018-01-22T02:13:53.194Z,17.73
2018-01-22T02:16:22.292Z,15.07
2018-01-22T02:18:51.350Z,16.93
2018-01-22T02:21:19.642Z,16.87
2018-01-22T02:23:47.946Z,18.13
2018-01-22T02:26:17.086Z,15.70
2018-01-22T02:28:45.382Z,17.27
2018-01-22T02:31:13.677Z,18.30
2018-01-22T02:33:41.967Z,18.70
2018-01-22T02:36:10.256Z,18.30
2018-01-22T02:38:38.564Z,15.77
2018-01-22T02:41:07.693Z,14.90
2018-01-22T02:43:36.079Z,16.30
2018-01-22T02:46:04.366Z,18.93
2018-01-22T02:48:32.665Z,16.53
2018-01-22T02:51:01.567Z,16.20
2018-01-22T02:53:29.877Z,18.03
2018-01-22T02:55:58.988Z,21.97
2018-01-22T02:58:28.086Z,18.17
2018-01-22T03:00:57.176Z,18.90
2018-01-22T03:03:26.350Z,18.23
2018-01-22T03:05:54.669Z,17.70
2018-01-22T03:08:23.724Z,19.13
2018-01-22T03:10:53.486Z,18.27
2018-01-22T03:13:21.784Z,21.43
2018-01-22T03:15:50.879Z,18.90
2018-01-22T03:18:19.213Z,21.30
2018-01-22T03:20:47.542Z,23.87
2018-01-22T03:23:15.867Z,20.13
2018-01-22T03:25:44.164Z,22.67
2018-01-22T03:28:12.495Z,23.50
2018-01-22T03:30:40.807Z,22.60
2018-01-22T03:33:09.394Z,23.33
2018-01-22T03:35:37.704Z,23.80
2018-01-22T03:38:06.122Z,22.97
2018-01-22T03:40:34.420Z,22.43
2018-01-22T03:43:03.520Z,22.03
2018-01-22T03:45:31.830Z,27.63
2018-01-22T03:48:00.177Z,23.80
2018-01-22T03:50:28.513Z,22.97
2018-01-22T03:52:56.882Z,24.77
2018-01-22T03:55:25.196Z,24.50
2018-01-22T03:57:53.572Z,23.50
2018-01-22T04:00:22.630Z,21.90
2018-01-22T04:02:50.946Z,27.60
2018-01-22T04:05:20.032Z,26.90
2018-01-22T04:07:48.348Z,30.93
2018-01-22T04:10:16.650Z,25.60
2018-01-22T04:12:44.966Z,24.67
2018-01-22T04:15:13.618Z,28.30
2018-01-22T04:17:41.910Z,30.63
2018-01-22T04:20:10.212Z,30.27
2018-01-22T04:22:38.516Z,28.60
2018-01-22T04:25:06.838Z,29.67
2018-01-22T04:27:35.143Z,26.20
2018-01-22T04:30:03.470Z,26.83
2018-01-22T04:32:31.796Z,30.07
2018-01-22T04:35:00.106Z,27.13
2018-01-22T04:37:28.464Z,30.10
2018-01-22T04:39:57.596Z,30.27
2018-01-22T04:42:25.892Z,31.17
2018-01-22T04:44:54.203Z,37.00
2018-01-22T04:47:22.514Z,33.27
2018-01-22T04:49:50.870Z,38.90
2018-01-22T04:52:19.195Z,35.10
2018-01-22T04:54:47.544Z,37.20
2018-01-22T04:57:16.627Z,40.77
2018-01-22T04:59:44.932Z,37.70
2018-01-22T05:02:13.278Z,40.70
2018-01-22T05:04:42.400Z,44.40
2018-01-22T05:07:10.724Z,46.77
2018-01-22T05:09:39.804Z,42.90
2018-01-22T05:12:08.111Z,50.27
2018-01-22T05:14:36.424Z,51.10
2018-01-22T05:17:05.566Z,43.30
2018-01-22T05:19:33.922Z,46.67
2018-01-22T05:22:02.234Z,46.93
2018-01-22T05:24:31.085Z,43.33
2018-01-22T05:27:00.191Z,53.67
2018-01-22T05:29:28.526Z,53.27
2018-01-22T05:31:56.885Z,49.80
2018-01-22T05:34:25.459Z,52.27
2018-01-22T05:36:53.746Z,49.50
2018-01-22T05:39:22.130Z,54.53
2018-01-22T05:41:50.947Z,52.37
2018-01-22T05:44:19.238Z,60.53
2018-01-22T05:46:47.557Z,56.63
2018-01-22T05:49:17.486Z,55.33
2018-01-22T05:51:46.144Z,51.10
2018-01-22T05:54:14.438Z,46.60
2018-01-22T05:56:44.135Z,50.40
2018-01-22T05:59:12.448Z,39.83
2018-01-22T06:01:40.810Z,48.00
2018-01-22T06:04:09.964Z,49.07
2018-01-22T06:06:38.266Z,46.90
2018-01-22T06:09:06.600Z,41.20
2018-01-22T06:11:35.867Z,52.17
2018-01-22T06:14:04.186Z,50.50
2018-01-22T06:16:32.487Z,59.97
2018-01-22T06:19:01.042Z,37.83
2018-01-22T06:21:29.357Z,34.47
2018-01-22T06:23:57.722Z,38.67
2018-01-22T06:26:26.055Z,35.03
2018-01-22T06:28:54.424Z,30.77
2018-01-22T06:31:22.733Z,31.47
2018-01-22T06:33:51.064Z,27.23
2018-01-22T06:36:19.363Z,25.30
2018-01-22T06:38:47.676Z,25.17
2018-01-22T06:41:15.990Z,25.27
2018-01-22T06:43:45.250Z,28.83
2018-01-22T06:46:13.594Z,27.30
2018-01-22T06:48:42.508Z,27.93
2018-01-22T06:51:10.853Z,18.40
2018-01-22T06:53:39.167Z,26.33
2018-01-22T06:56:07.713Z,19.03
2018-01-22T06:58:36.790Z,24.33
2018-01-22T07:01:05.937Z,23.53
2018-01-22T07:03:34.479Z,24.80
2018-01-22T07:06:03.558Z,20.67
2018-01-22T07:08:31.879Z,27.93
2018-01-22T07:11:01.031Z,15.50
2018-01-22T07:13:29.327Z,24.50
2018-01-22T07:15:57.631Z,35.90
2018-01-22T07:18:27.269Z,28.70
2018-01-22T07:20:55.590Z,23.70
2018-01-22T07:23:23.895Z,18.40
2018-01-22T07:25:53.001Z,20.03
2018-01-22T07:28:21.382Z,17.47
2018-01-22T07:30:49.633Z,25.23
2018-01-22T07:33:17.932Z,17.83
2018-01-22T07:35:46.811Z,19.87
2018-01-22T07:38:15.196Z,18.73
2018-01-22T07:40:43.539Z,15.43
2018-01-22T07:43:11.903Z,16.00
2018-01-22T07:45:40.254Z,23.23
2018-01-22T07:48:08.592Z,18.57
2018-01-22T07:50:36.971Z,20.07
2018-01-22T07:53:05.764Z,16.30
2018-01-22T07:55:34.289Z,15.43
2018-01-22T07:58:03.016Z,18.13
2018-01-22T08:00:31.345Z,14.53
2018-01-22T08:02:59.725Z,21.93
2018-01-22T08:05:28.633Z,15.73
2018-01-22T08:07:57.713Z,21.03
2018-01-22T08:10:26.020Z,21.60
2018-01-22T08:12:56.070Z,21.43
2018-01-22T08:15:24.769Z,23.00
2018-01-22T08:17:54.198Z,13.60
2018-01-22T08:20:23.264Z,18.80
2018-01-22T08:22:51.549Z,13.80
2018-01-22T08:25:21.814Z,20.13
2018-01-22T08:27:50.495Z,16.37
2018-01-22T08:30:19.511Z,17.77
2018-01-22T08:32:48.559Z,20.70
2018-01-22T08:35:17.551Z,18.00
2018-01-22T08:37:46.291Z,23.80
2018-01-22T08:40:14.737Z,17.30
2018-01-22T08:42:43.885Z,19.07
2018-01-22T08:45:12.218Z,17.90
2018-01-22T08:47:41.282Z,22.00
2018-01-22T08:50:09.661Z,24.97
2018-01-22T08:52:37.985Z,24.70
2018-01-22T08:55:07.084Z,16.07
2018-01-22T08:57:36.162Z,24.30
2018-01-22T09:00:04.563Z,13.00
2018-01-22T09:02:33.629Z,14.80
2018-01-22T09:05:02.151Z,19.07
2018-01-22T09:07:31.221Z,13.00
2018-01-22T09:09:59.561Z,21.07
2018-01-22T09:12:27.881Z,20.67
2018-01-22T09:14:56.331Z,14.20
2018-01-22T09:17:25.264Z,23.40
2018-01-22T09:19:53.592Z,17.50
2018-01-22T09:22:24.033Z,18.93
2018-01-22T09:24:52.361Z,26.23
2018-01-22T09:27:20.653Z,17.57
2018-01-22T09:29:49.307Z,21.47
2018-01-22T09:32:17.663Z,22.53
2018-01-22T09:34:47.111Z,14.13
2018-01-22T09:37:15.487Z,15.50
2018-01-22T09:39:44.531Z,19.50
2018-01-22T09:42:15.021Z,22.00
2018-01-22T09:44:43.479Z,28.17
2018-01-22T09:47:13.264Z,18.47
2018-01-22T09:49:42.333Z,20.20
2018-01-22T09:52:12.242Z,16.67
2018-01-22T09:54:41.641Z,19.53
2018-01-22T09:57:09.978Z,20.50
2018-01-22T10:02:14.965Z,16.03
2018-01-22T10:04:45.080Z,18.30
2018-01-22T10:07:14.307Z,16.67
2018-01-22T10:09:44.189Z,18.10
2018-01-22T10:12:13.545Z,16.63
2018-01-22T10:14:42.660Z,13.07
2018-01-22T10:17:11.812Z,23.63
2018-01-22T10:19:40.250Z,16.53
2018-01-22T10:22:09.345Z,18.43
2018-01-22T10:24:37.752Z,18.40
2018-01-22T10:27:08.736Z,22.50
2018-01-22T10:29:37.061Z,16.70
2018-01-22T10:32:06.398Z,11.17
2018-01-22T10:34:34.801Z,16.37
2018-01-22T10:37:04.565Z,14.17
2018-01-22T10:39:33.709Z,19.23
2018-01-22T10:42:02.942Z,26.93
2018-01-22T10:44:31.390Z,24.77
2018-01-22T10:46:59.739Z,29.60
2018-01-22T10:49:29.275Z,26.00
2018-01-22T10:51:57.655Z,27.57
2018-01-22T10:54:25.993Z,17.33
2018-01-22T10:56:55.097Z,18.43
2018-01-22T10:59:23.482Z,26.20
2018-01-22T11:01:51.849Z,18.27
2018-01-22T11:04:20.161Z,17.93
2018-01-22T11:06:49.689Z,22.60
2018-01-22T11:09:18.016Z,18.00
2018-01-22T11:11:46.457Z,21.30
2018-01-22T11:14:14.941Z,13.67
2018-01-22T11:16:43.387Z,16.50
2018-01-22T11:19:13.393Z,24.07
2018-01-22T11:21:41.770Z,13.07
2018-01-22T11:24:10.117Z,23.70
2018-01-22T11:26:39.301Z,19.07
2018-01-22T11:29:08.113Z,16.37
2018-01-22T11:31:36.435Z,17.13
2018-01-22T11:34:04.773Z,18.90
2018-01-22T11:36:33.262Z,22.97
2018-01-22T11:39:01.592Z,18.53
2018-01-22T11:41:31.497Z,14.73
2018-01-22T11:44:01.549Z,13.10
2018-01-22T11:46:32.991Z,21.10
2018-01-22T11:49:01.613Z,22.27
2018-01-22T11:51:30.005Z,15.83
2018-01-22T11:53:59.118Z,19.13
2018-01-22T11:56:28.399Z,17.70
2018-01-22T11:58:56.740Z,20.30
2018-01-22T12:01:25.086Z,22.40
2018-01-22T12:03:53.700Z,22.07
2018-01-22T12:06:22.334Z,26.43
2018-01-22T12:08:53.496Z,17.87
2018-01-22T12:11:22.261Z,21.27
2018-01-22T12:13:51.386Z,16.73
2018-01-22T12:16:20.445Z,17.97
2018-01-22T12:18:49.585Z,22.33
2018-01-22T12:21:17.948Z,22.93
2018-01-22T12:23:48.014Z,17.27
2018-01-22T12:26:17.124Z,17.47
2018-01-22T12:28:46.973Z,21.77
2018-01-22T12:31:16.024Z,21.13
2018-01-22T12:33:44.358Z,19.97
2018-01-22T12:36:12.751Z,22.40
2018-01-22T12:38:41.085Z,25.63
2018-01-22T12:41:10.274Z,22.17
2018-01-22T12:43:38.683Z,22.33
2018-01-22T12:46:07.752Z,17.73
2018-01-22T12:48:36.076Z,23.60
2018-01-22T12:51:04.440Z,18.43
2018-01-22T12:53:32.758Z,19.13
2018-01-22T12:56:01.884Z,23.47
2018-01-22T12:58:30.206Z,21.83
2018-01-22T13:00:59.355Z,18.10
2018-01-22T13:03:27.688Z,20.73
2018-01-22T13:05:56.037Z,28.40
2018-01-22T13:08:24.422Z,20.73
2018-01-22T13:10:52.758Z,16.47
2018-01-22T13:13:21.092Z,22.77
2018-01-22T13:15:49.456Z,32.10
2018-01-22T13:18:17.978Z,19.70
2018-01-22T13:20:46.302Z,18.30
2018-01-22T13:23:15.392Z,21.03
2018-01-22T13:25:43.812Z,23.37
2018-01-22T13:28:12.140Z,24.40
2018-01-22T13:30:40.786Z,20.07
2018-01-22T13:33:09.096Z,23.00
2018-01-22T13:35:37.406Z,21.77
2018-01-22T13:38:06.377Z,24.03
2018-01-22T13:40:40.943Z,21.70
2018-01-22T13:43:09.271Z,20.13
2018-01-22T13:45:38.396Z,25.07
2018-01-22T13:48:06.955Z,21.40
2018-01-22T13:50:35.314Z,19.00
2018-01-22T13:53:03.738Z,27.63
2018-01-22T13:55:32.078Z,19.00
2018-01-22T13:58:01.251Z,32.53
2018-01-22T14:00:31.955Z,25.80
2018-01-22T14:03:00.260Z,24.23
2018-01-22T14:05:29.042Z,19.23
2018-01-22T14:07:57.662Z,25.93
2018-01-22T14:10:26.744Z,23.30
2018-01-22T14:12:55.066Z,27.60
2018-01-22T14:15:23.718Z,28.13
2018-01-22T14:17:52.102Z,22.07
2018-01-22T14:20:21.240Z,29.13
2018-01-22T14:22:49.574Z,23.10
2018-01-22T14:25:17.902Z,26.00
2018-01-22T14:27:46.230Z,21.53
2018-01-22T14:30:14.530Z,30.50
2018-01-22T14:32:46.191Z,33.13
2018-01-22T14:35:17.037Z,29.30
2018-01-22T14:37:46.096Z,25.77
2018-01-22T14:40:14.418Z,26.10
2018-01-22T14:42:43.482Z,18.13
2018-01-22T14:45:12.133Z,22.57
2018-01-22T14:47:40.450Z,24.60
2018-01-22T14:50:09.517Z,23.47
2018-01-22T14:52:38.031Z,26.20
2018-01-22T14:55:06.366Z,28.13
2018-01-22T14:57:35.862Z,25.23
2018-01-22T15:00:04.932Z,25.30
2018-01-22T15:02:33.590Z,22.53
2018-01-22T15:05:01.940Z,21.47
2018-01-22T15:07:30.280Z,27.13
2018-01-22T15:09:58.607Z,25.00
2018-01-22T15:12:27.682Z,30.10
2018-01-22T15:14:56.164Z,34.10
2018-01-22T15:17:24.626Z,25.27
2018-01-22T15:19:53.838Z,28.17
2018-01-22T15:22:23.606Z,27.60
2018-01-22T15:24:52.036Z,25.10
2018-01-22T15:27:21.115Z,35.57
2018-01-22T15:29:50.312Z,24.83
2018-01-22T15:32:18.615Z,29.67
2018-01-22T15:34:46.970Z,31.17
2018-01-22T15:37:15.280Z,22.27
2018-01-22T15:39:43.734Z,24.60
2018-01-22T15:42:12.413Z,30.67
2018-01-22T15:44:41.674Z,31.00
2018-01-22T15:47:10.023Z,31.50
2018-01-22T15:49:38.408Z,31.00
2018-01-22T15:52:07.594Z,28.80
2018-01-22T15:54:36.168Z,23.83
2018-01-22T15:57:05.778Z,28.23
2018-01-22T15:59:34.209Z,25.77
2018-01-22T16:02:02.728Z,19.43
2018-01-22T16:04:31.822Z,20.80
2018-01-22T16:07:00.123Z,26.03
2018-01-22T16:09:29.744Z,25.47
2018-01-22T16:11:58.318Z,24.80
2018-01-22T16:14:27.403Z,23.93
2018-01-22T16:16:55.722Z,22.87
2018-01-22T16:19:24.033Z,23.40
2018-01-22T16:21:53.308Z,24.80
2018-01-22T16:24:21.624Z,25.17
2018-01-22T16:26:49.947Z,24.87
2018-01-22T16:29:19.043Z,35.73
2018-01-22T16:31:48.930Z,22.87
2018-01-22T16:34:17.330Z,30.27
2018-01-22T16:36:46.060Z,25.13
2018-01-22T16:39:14.410Z,22.13
2018-01-22T16:41:43.543Z,21.33
2018-01-22T16:44:12.240Z,25.13
2018-01-22T16:46:41.026Z,27.40
2018-01-22T16:49:10.070Z,25.53
2018-01-22T16:51:38.814Z,21.40
2018-01-22T16:54:07.122Z,35.63
2018-01-22T16:56:35.436Z,28.20
2018-01-22T16:59:03.758Z,23.23
2018-01-22T17:01:32.152Z,28.13
2018-01-22T17:04:00.444Z,25.87
2018-01-22T17:06:28.752Z,25.87
2018-01-22T17:08:57.076Z,34.50
2018-01-22T17:11:25.393Z,32.10
2018-01-22T17:13:53.684Z,28.30
2018-01-22T17:16:22.031Z,30.17
2018-01-22T17:18:50.332Z,23.87
2018-01-22T17:21:18.634Z,26.67
2018-01-22T17:23:47.029Z,27.67
2018-01-22T17:26:15.560Z,24.50
2018-01-22T17:28:43.869Z,26.60
2018-01-22T17:31:12.270Z,31.07
2018-01-22T17:33:40.745Z,24.37
2018-01-22T17:36:09.039Z,22.03
2018-01-22T17:38:37.530Z,28.93
2018-01-22T17:41:06.070Z,23.90
2018-01-22T17:43:37.611Z,31.70
2018-01-22T17:46:06.691Z,25.53
2018-01-22T17:48:35.888Z,28.00
2018-01-22T17:51:05.026Z,31.80
2018-01-22T17:53:33.372Z,25.43
2018-01-22T17:56:02.566Z,28.00
2018-01-22T17:58:31.657Z,22.63
2018-01-22T18:01:00.370Z,25.63
2018-01-22T18:03:29.816Z,34.03
2018-01-22T18:05:59.962Z,32.60
2018-01-22T18:08:29.987Z,34.13
2018-01-22T18:10:58.379Z,29.93
2018-01-22T18:13:26.840Z,33.97
2018-01-22T18:15:55.171Z,21.57
2018-01-22T18:18:23.537Z,22.93
2018-01-22T18:20:51.907Z,29.73
2018-01-22T18:23:21.502Z,33.77
2018-01-22T18:25:49.834Z,24.77
2018-01-22T18:28:18.939Z,37.40
2018-01-22T18:30:48.047Z,31.00
2018-01-22T18:33:16.382Z,29.80
2018-01-22T18:35:45.543Z,20.83
2018-01-22T18:38:13.893Z,26.70
2018-01-22T18:40:43.030Z,27.50
2018-01-22T18:43:11.413Z,21.43
2018-01-22T18:45:39.834Z,28.43
2018-01-22T18:48:09.040Z,16.83
2018-01-22T18:50:37.375Z,21.17
2018-01-22T18:53:05.705Z,27.57
2018-01-22T18:55:34.824Z,23.00
2018-01-22T18:58:03.141Z,20.83
2018-01-22T19:00:31.550Z,23.40
2018-01-22T19:03:01.537Z,22.00
2018-01-22T19:05:29.850Z,22.80
2018-01-22T19:07:58.242Z,24.53
2018-01-22T19:10:26.599Z,31.07
2018-01-22T19:12:55.005Z,27.20
2018-01-22T19:15:23.332Z,32.10
2018-01-22T19:17:52.441Z,20.83
2018-01-22T19:20:21.515Z,34.20
2018-01-22T19:22:49.860Z,26.83
2018-01-22T19:25:18.182Z,27.50
2018-01-22T19:27:47.275Z,19.90
2018-01-22T19:30:15.667Z,16.53
2018-01-22T19:32:44.293Z,21.13
2018-01-22T19:35:12.625Z,24.43
2018-01-22T19:37:40.942Z,23.87
2018-01-22T19:40:10.290Z,20.07
2018-01-22T19:42:38.595Z,15.13
2018-01-22T19:45:09.357Z,22.60
2018-01-22T19:47:37.708Z,21.30
2018-01-22T19:50:06.041Z,25.83
2018-01-22T19:52:34.423Z,27.37
2018-01-22T19:55:02.734Z,17.07
2018-01-22T19:57:31.819Z,22.30
2018-01-22T20:00:00.134Z,18.17
2018-01-22T20:02:28.478Z,16.90
2018-01-22T20:04:57.623Z,19.50
2018-01-22T20:07:25.986Z,20.87
2018-01-22T20:09:54.375Z,21.23
2018-01-22T20:12:22.684Z,18.27
2018-01-22T20:14:50.993Z,18.97
2018-01-22T20:17:19.312Z,22.80
2018-01-22T20:19:47.598Z,20.33
2018-01-22T20:22:15.905Z,17.93
2018-01-22T20:24:44.992Z,17.40
2018-01-22T20:27:13.281Z,25.30
2018-01-22T20:29:41.578Z,16.00
2018-01-22T20:32:10.677Z,16.03
2018-01-22T20:34:39.804Z,19.67
2018-01-22T20:37:08.103Z,16.10
2018-01-22T20:39:36.402Z,14.50
2018-01-22T20:42:04.709Z,16.30
2018-01-22T20:44:33.795Z,17.30
2018-01-22T20:47:02.107Z,21.40
2018-01-22T20:49:31.186Z,20.42
2018-01-22T20:51:59.496Z,20.80
2018-01-22T20:54:28.169Z,18.70
2018-01-22T20:56:56.486Z,18.53
2018-01-22T20:59:24.781Z,16.50
2018-01-22T21:01:53.084Z,22.67
2018-01-22T21:04:21.381Z,18.07
2018-01-22T21:06:49.673Z,22.80
2018-01-22T21:09:17.963Z,17.60
2018-01-22T21:11:47.061Z,16.60
2018-01-22T21:14:16.111Z,16.93
2018-01-22T21:16:44.416Z,18.03
2018-01-22T21:19:12.731Z,21.67
2018-01-22T21:21:41.782Z,16.17
2018-01-22T21:24:10.103Z,19.33
2018-01-22T21:26:39.157Z,23.47
2018-01-22T21:29:07.489Z,21.87
2018-01-22T21:31:36.539Z,12.10
2018-01-22T21:34:04.893Z,16.97
2018-01-22T21:36:33.375Z,18.17
2018-01-22T21:39:01.681Z,14.37
2018-01-22T21:41:31.061Z,20.07
2018-01-22T21:43:59.433Z,10.93
2018-01-22T21:46:28.489Z,20.00
2018-01-22T21:48:56.791Z,20.03
2018-01-22T21:51:25.092Z,16.53
2018-01-22T21:53:54.207Z,12.77
2018-01-22T21:56:22.519Z,15.10
2018-01-22T21:58:50.835Z,13.93
2018-01-22T22:01:19.155Z,21.07
2018-01-22T22:03:47.469Z,13.07
2018-01-22T22:06:15.761Z,18.80
2018-01-22T22:08:45.566Z,18.37
2018-01-22T22:11:14.305Z,19.87
2018-01-22T22:13:43.383Z,17.57
2018-01-22T22:16:11.739Z,14.50
2018-01-22T22:18:40.053Z,19.17
2018-01-22T22:21:08.357Z,16.10
2018-01-22T22:23:36.666Z,17.50
2018-01-22T22:26:05.031Z,17.57
2018-01-22T22:28:33.342Z,15.30
2018-01-22T22:31:01.640Z,11.50
2018-01-22T22:33:29.955Z,19.10
2018-01-22T22:35:59.077Z,18.40
2018-01-22T22:38:28.317Z,15.33
2018-01-22T22:40:56.631Z,13.70
2018-01-22T22:43:25.753Z,13.47
2018-01-22T22:45:54.123Z,16.33
2018-01-22T22:48:23.184Z,12.60
2018-01-22T22:50:51.485Z,14.33
2018-01-22T22:53:19.785Z,21.50
2018-01-22T22:55:48.941Z,11.77
2018-01-22T22:58:17.250Z,13.23
2018-01-22T23:00:45.556Z,12.33
2018-01-22T23:03:14.666Z,12.73
2018-01-22T23:05:43.051Z,12.90
2018-01-22T23:08:11.363Z,17.83
2018-01-22T23:10:39.673Z,13.00
2018-01-22T23:13:07.970Z,9.30
2018-01-22T23:15:37.770Z,16.50
2018-01-22T23:18:06.140Z,15.83
2018-01-22T23:20:35.090Z,16.20
2018-01-22T23:23:03.384Z,13.00
2018-01-22T23:25:31.678Z,14.60
2018-01-22T23:27:59.977Z,20.50
2018-01-22T23:30:28.455Z,14.97
2018-01-22T23:32:57.786Z,16.27
2018-01-22T23:35:26.088Z,13.50
2018-01-22T23:37:55.549Z,13.90
2018-01-22T23:40:23.860Z,13.37
2018-01-22T23:42:52.932Z,9.43
2018-01-22T23:45:21.604Z,10.73
2018-01-22T23:47:49.906Z,15.20
2018-01-22T23:50:18.210Z,16.30
2018-01-22T23:52:47.279Z,16.07
2018-01-22T23:55:16.428Z,9.83
2018-01-22T23:57:45.544Z,17.77
